createdAt,value
2023-04-16T00:00:33.326Z,5218.00
2023-04-16T00:01:33.317Z,5273.00
2023-04-16T00:02:33.455Z,5344.00
2023-04-16T00:03:33.762Z,5414.00
2023-04-16T00:04:33.609Z,5445.00
2023-04-16T00:05:33.553Z,5473.00
2023-04-16T00:06:33.604Z,5516.00
2023-04-16T00:07:33.637Z,5605.00
2023-04-16T00:08:33.709Z,5631.00
2023-04-16T00:09:33.762Z,5604.00
2023-04-16T00:10:33.837Z,5624.00
2023-04-16T00:11:33.910Z,5583.00
2023-04-16T00:12:33.951Z,5541.00
2023-04-16T00:13:33.992Z,5543.00
2023-04-16T00:14:34.053Z,5595.00
2023-04-16T00:15:34.105Z,5672.00
2023-04-16T00:16:34.160Z,5705.00
2023-04-16T00:17:34.193Z,5713.00
2023-04-16T00:18:34.217Z,5677.00
2023-04-16T00:19:34.253Z,5706.00
2023-04-16T00:20:34.287Z,5732.00
2023-04-16T00:21:34.355Z,5749.00
2023-04-16T00:22:34.379Z,5823.00
2023-04-16T00:23:34.418Z,5889.00
2023-04-16T00:24:34.439Z,5863.00
2023-04-16T00:25:34.439Z,5872.00
2023-04-16T00:26:34.482Z,5957.00
2023-04-16T00:27:34.474Z,6017.00
2023-04-16T00:28:34.520Z,6059.00
2023-04-16T00:29:34.521Z,6023.00
2023-04-16T00:30:34.562Z,6069.00
2023-04-16T00:31:34.561Z,6072.00
2023-04-16T00:32:34.626Z,6211.00
2023-04-16T00:33:34.623Z,6130.00
2023-04-16T00:34:34.634Z,5985.00
2023-04-16T00:35:34.690Z,5906.00
2023-04-16T00:36:34.730Z,5889.00
2023-04-16T00:37:34.750Z,5875.00
2023-04-16T00:38:34.793Z,5862.00
2023-04-16T00:39:34.799Z,6322.00
2023-04-16T00:40:34.824Z,6489.00
2023-04-16T00:41:34.860Z,6523.00
2023-04-16T00:42:34.905Z,6490.00
2023-04-16T00:43:34.917Z,6444.00
2023-04-16T00:44:34.929Z,6470.00
2023-04-16T00:45:34.961Z,6496.00
2023-04-16T00:46:35.016Z,6467.00
2023-04-16T00:47:35.004Z,6417.00
2023-04-16T00:48:34.987Z,6299.00
2023-04-16T00:49:34.996Z,6248.00
2023-04-16T00:50:34.998Z,6257.00
2023-04-16T00:51:35.003Z,6395.00
2023-04-16T00:52:34.987Z,6398.00
2023-04-16T00:53:35.002Z,6423.00
2023-04-16T00:54:34.980Z,6486.00
2023-04-16T00:55:34.988Z,6547.00
2023-04-16T00:56:35.016Z,6395.00
2023-04-16T00:57:35.014Z,6341.00
2023-04-16T00:58:35.009Z,6433.00
2023-04-16T00:59:34.989Z,6444.00
2023-04-16T01:00:34.992Z,6543.00
2023-04-16T01:01:35.053Z,6577.00
2023-04-16T01:02:35.150Z,6540.00
2023-04-16T01:03:35.102Z,6558.00
2023-04-16T01:04:35.060Z,6535.00
2023-04-16T01:05:35.002Z,6554.00
2023-04-16T01:06:35.047Z,6620.00
2023-04-16T01:07:35.025Z,6749.00
2023-04-16T01:08:35.012Z,6996.00
2023-04-16T01:09:35.000Z,7287.00
2023-04-16T01:10:35.015Z,7553.00
2023-04-16T01:11:35.045Z,7788.00
2023-04-16T01:12:35.040Z,7998.00
2023-04-16T01:13:35.064Z,8132.00
2023-04-16T01:14:35.076Z,8293.00
2023-04-16T01:15:35.138Z,8498.00
2023-04-16T01:16:35.140Z,8644.00
2023-04-16T01:17:35.242Z,9116.00
2023-04-16T01:18:35.208Z,9470.00
2023-04-16T01:19:35.223Z,9454.00
2023-04-16T01:20:35.254Z,9283.00
2023-04-16T01:21:35.283Z,9092.00
2023-04-16T01:22:35.350Z,8900.00
2023-04-16T01:23:35.350Z,8613.00
2023-04-16T01:24:35.388Z,8402.00
2023-04-16T01:25:35.426Z,8117.00
2023-04-16T01:26:35.463Z,7903.00
2023-04-16T01:27:35.471Z,7859.00
2023-04-16T01:28:35.504Z,7951.00
2023-04-16T01:29:35.536Z,8096.00
2023-04-16T01:30:35.550Z,8243.00
2023-04-16T01:31:35.623Z,8343.00
2023-04-16T01:32:35.696Z,8372.00
2023-04-16T01:33:35.641Z,8422.00
2023-04-16T01:34:35.660Z,8506.00
2023-04-16T01:35:35.686Z,8549.00
2023-04-16T01:36:35.690Z,8570.00
2023-04-16T01:37:35.733Z,8578.00
2023-04-16T01:38:35.754Z,8590.00
2023-04-16T01:39:35.798Z,8549.00
2023-04-16T01:40:35.833Z,8572.00
2023-04-16T01:41:35.856Z,8634.00
2023-04-16T01:42:35.907Z,8847.00
2023-04-16T01:43:37.230Z,8946.00
2023-04-16T01:44:35.901Z,9070.00
2023-04-16T01:45:35.897Z,9255.00
2023-04-16T01:46:35.919Z,9334.00
2023-04-16T01:47:35.948Z,9378.00
2023-04-16T01:48:35.884Z,9340.00
2023-04-16T01:49:35.877Z,9311.00
2023-04-16T01:50:35.855Z,9298.00
2023-04-16T01:51:35.857Z,9295.00
2023-04-16T01:52:35.880Z,9257.00
2023-04-16T01:53:37.099Z,9248.00
2023-04-16T01:54:35.826Z,9219.00
2023-04-16T01:55:35.828Z,9137.00
2023-04-16T01:56:35.854Z,9028.00
2023-04-16T01:57:35.806Z,8905.00
2023-04-16T01:58:35.824Z,8775.00
2023-04-16T01:59:35.807Z,8652.00
2023-04-16T02:00:35.819Z,8638.00
2023-04-16T02:01:35.788Z,8668.00
2023-04-16T02:02:35.886Z,8700.00
2023-04-16T02:03:35.920Z,8662.00
2023-04-16T02:04:35.758Z,8562.00
2023-04-16T02:05:35.769Z,8494.00
2023-04-16T02:06:35.764Z,8519.00
2023-04-16T02:07:35.758Z,8520.00
2023-04-16T02:08:35.740Z,8487.00
2023-04-16T02:09:35.727Z,8372.00
2023-04-16T02:10:35.750Z,8323.00
2023-04-16T02:11:35.726Z,8256.00
2023-04-16T02:12:35.711Z,8241.00
2023-04-16T02:13:35.718Z,8163.00
2023-04-16T02:14:35.693Z,8151.00
2023-04-16T02:15:35.688Z,8156.00
2023-04-16T02:16:35.734Z,8137.00
2023-04-16T02:17:35.713Z,8068.00
2023-04-16T02:18:35.668Z,8019.00
2023-04-16T02:19:35.664Z,7971.00
2023-04-16T02:20:35.661Z,7962.00
2023-04-16T02:21:35.635Z,7937.00
2023-04-16T02:22:35.648Z,7939.00
2023-04-16T02:23:35.644Z,8040.00
2023-04-16T02:24:35.620Z,8237.00
2023-04-16T02:25:35.633Z,8403.00
2023-04-16T02:26:35.604Z,8504.00
2023-04-16T02:27:35.611Z,8314.00
2023-04-16T02:28:35.604Z,8172.00
2023-04-16T02:29:35.600Z,8152.00
2023-04-16T02:30:35.574Z,8124.00
2023-04-16T02:31:35.615Z,8173.00
2023-04-16T02:32:35.623Z,8204.00
2023-04-16T02:33:35.572Z,8222.00
2023-04-16T02:34:35.552Z,8147.00
2023-04-16T02:35:35.528Z,8065.00
2023-04-16T02:36:35.548Z,8079.00
2023-04-16T02:37:35.535Z,8064.00
2023-04-16T02:38:35.529Z,8095.00
2023-04-16T02:39:35.526Z,8193.00
2023-04-16T02:40:35.495Z,8338.00
2023-04-16T02:41:35.494Z,8332.00
2023-04-16T02:42:35.537Z,8345.00
2023-04-16T02:43:35.502Z,8299.00
2023-04-16T02:44:35.492Z,8287.00
2023-04-16T02:45:35.502Z,8235.00
2023-04-16T02:46:35.476Z,8275.00
2023-04-16T02:47:35.473Z,8333.00
2023-04-16T02:48:35.469Z,8392.00
2023-04-16T02:49:35.446Z,8453.00
2023-04-16T02:50:35.451Z,8473.00
2023-04-16T02:51:35.429Z,8479.00
2023-04-16T02:52:35.422Z,8493.00
2023-04-16T02:53:35.437Z,8548.00
2023-04-16T02:54:35.442Z,8544.00
2023-04-16T02:55:35.431Z,8540.00
2023-04-16T02:56:35.410Z,8568.00
2023-04-16T02:57:35.414Z,8605.00
2023-04-16T02:58:35.418Z,8637.00
2023-04-16T02:59:35.435Z,8696.00
2023-04-16T03:00:35.448Z,8747.00
2023-04-16T03:01:35.469Z,8705.00
2023-04-16T03:02:35.534Z,8723.00
2023-04-16T03:03:35.463Z,8732.00
2023-04-16T03:04:35.611Z,8682.00
2023-04-16T03:05:35.472Z,8689.00
2023-04-16T03:06:35.478Z,8733.00
2023-04-16T03:07:35.484Z,8712.00
2023-04-16T03:08:35.517Z,8651.00
2023-04-16T03:09:35.499Z,8644.00
2023-04-16T03:10:35.488Z,8658.00
2023-04-16T03:11:35.494Z,8724.00
2023-04-16T03:12:35.540Z,8630.00
2023-04-16T03:13:35.532Z,8616.00
2023-04-16T03:14:35.537Z,8599.00
2023-04-16T03:15:35.573Z,8469.00
2023-04-16T03:16:35.557Z,8510.00
2023-04-16T03:17:35.588Z,8453.00
2023-04-16T03:18:35.590Z,8478.00
2023-04-16T03:19:35.605Z,8471.00
2023-04-16T03:20:35.615Z,8395.00
2023-04-16T03:21:35.645Z,8259.00
2023-04-16T03:22:35.698Z,8243.00
2023-04-16T03:23:35.671Z,8264.00
2023-04-16T03:24:35.697Z,8214.00
2023-04-16T03:25:35.723Z,8175.00
2023-04-16T03:26:35.705Z,8081.00
2023-04-16T03:27:35.728Z,7986.00
2023-04-16T03:28:35.737Z,7939.00
2023-04-16T03:29:35.762Z,7871.00
2023-04-16T03:30:35.769Z,7818.00
2023-04-16T03:31:35.823Z,7763.00
2023-04-16T03:32:35.845Z,7764.00
2023-04-16T03:33:35.822Z,7736.00
2023-04-16T03:34:35.821Z,7749.00
2023-04-16T03:35:35.828Z,7756.00
2023-04-16T03:36:35.839Z,7779.00
2023-04-16T03:37:35.873Z,7744.00
2023-04-16T03:38:35.882Z,7753.00
2023-04-16T03:39:35.877Z,7830.00
2023-04-16T03:40:35.902Z,7881.00
2023-04-16T03:41:35.919Z,7915.00
2023-04-16T03:42:35.959Z,7924.00
2023-04-16T03:43:35.964Z,7973.00
2023-04-16T03:44:35.981Z,7980.00
2023-04-16T03:45:36.001Z,7972.00
2023-04-16T03:46:36.070Z,8003.00
2023-04-16T03:47:36.078Z,8033.00
2023-04-16T03:48:36.098Z,8081.00
2023-04-16T03:49:36.111Z,8151.00
2023-04-16T03:50:36.104Z,8184.00
2023-04-16T03:51:36.152Z,8213.00
2023-04-16T03:52:36.160Z,8298.00
2023-04-16T03:53:36.198Z,8399.00
2023-04-16T03:54:36.207Z,8471.00
2023-04-16T03:55:36.221Z,8518.00
2023-04-16T03:56:36.253Z,8630.00
2023-04-16T03:57:36.257Z,8675.00
2023-04-16T03:58:36.297Z,8725.00
2023-04-16T03:59:36.298Z,8745.00
2023-04-16T04:00:36.318Z,8784.00
2023-04-16T04:01:36.345Z,8704.00
2023-04-16T04:02:36.513Z,8637.00
2023-04-16T04:03:36.678Z,8557.00
2023-04-16T04:04:36.538Z,8581.00
2023-04-16T04:05:36.438Z,8633.00
2023-04-16T04:06:36.464Z,8594.00
2023-04-16T04:07:36.497Z,8565.00
2023-04-16T04:08:36.549Z,8512.00
2023-04-16T04:09:36.542Z,8472.00
2023-04-16T04:10:36.542Z,8509.00
2023-04-16T04:11:36.579Z,8565.00
2023-04-16T04:12:36.588Z,8635.00
2023-04-16T04:13:36.641Z,8559.00
2023-04-16T04:14:36.644Z,8461.00
2023-04-16T04:15:36.643Z,8434.00
2023-04-16T04:16:36.739Z,8335.00
2023-04-16T04:17:36.721Z,8248.00
2023-04-16T04:18:36.723Z,8246.00
2023-04-16T04:20:36.786Z,8312.00
2023-04-16T04:21:36.826Z,8371.00
2023-04-16T04:22:36.869Z,8414.00
2023-04-16T04:23:36.882Z,8473.00
2023-04-16T04:24:36.909Z,8518.00
2023-04-16T04:25:36.956Z,8526.00
2023-04-16T04:26:37.010Z,8543.00
2023-04-16T04:27:37.025Z,8580.00
2023-04-16T04:28:37.041Z,8586.00
2023-04-16T04:29:37.076Z,8593.00
2023-04-16T04:30:37.111Z,8608.00
2023-04-16T04:31:37.163Z,8658.00
2023-04-16T04:32:37.193Z,8683.00
2023-04-16T04:33:37.199Z,8687.00
2023-04-16T04:34:37.232Z,8738.00
2023-04-16T04:35:37.246Z,8805.00
2023-04-16T04:36:37.300Z,8867.00
2023-04-16T04:37:37.343Z,8916.00
2023-04-16T04:38:37.371Z,8930.00
2023-04-16T04:39:37.389Z,8988.00
2023-04-16T04:40:37.414Z,8969.00
2023-04-16T04:41:37.443Z,8952.00
2023-04-16T04:42:37.491Z,8808.00
2023-04-16T04:43:37.501Z,8753.00
2023-04-16T04:44:37.532Z,8605.00
2023-04-16T04:45:37.579Z,8552.00
2023-04-16T04:46:37.560Z,8579.00
2023-04-16T04:47:37.575Z,8556.00
2023-04-16T04:48:37.575Z,8517.00
2023-04-16T04:49:37.619Z,8500.00
2023-04-16T04:50:37.632Z,8486.00
2023-04-16T04:51:37.620Z,8514.00
2023-04-16T04:52:37.677Z,8508.00
2023-04-16T04:53:37.663Z,8496.00
2023-04-16T04:54:37.693Z,8520.00
2023-04-16T04:55:37.694Z,8564.00
2023-04-16T04:56:37.699Z,8579.00
2023-04-16T04:57:37.720Z,8476.00
2023-04-16T04:58:37.724Z,8392.00
2023-04-16T04:59:37.724Z,8232.00
2023-04-16T05:00:37.721Z,8013.00
2023-04-16T05:01:37.803Z,7850.00
2023-04-16T05:02:37.878Z,7770.00
2023-04-16T05:03:37.902Z,7767.00
2023-04-16T05:04:37.830Z,7776.00
2023-04-16T05:05:37.841Z,7709.00
2023-04-16T05:06:37.876Z,7716.00
2023-04-16T05:07:37.923Z,7715.00
2023-04-16T05:08:37.950Z,7751.00
2023-04-16T05:09:37.972Z,7775.00
2023-04-16T05:10:38.004Z,7679.00
2023-04-16T05:11:38.041Z,7653.00
2023-04-16T05:12:38.066Z,7746.00
2023-04-16T05:13:38.104Z,7834.00
2023-04-16T05:14:38.119Z,7944.00
2023-04-16T05:15:38.151Z,7934.00
2023-04-16T05:16:38.193Z,7917.00
2023-04-16T05:17:38.180Z,7926.00
2023-04-16T05:18:38.188Z,7929.00
2023-04-16T05:19:38.178Z,7929.00
2023-04-16T05:20:38.203Z,7940.00
2023-04-16T05:21:38.217Z,7825.00
2023-04-16T05:22:38.215Z,7671.00
2023-04-16T05:23:38.235Z,7567.00
2023-04-16T05:24:38.220Z,7549.00
2023-04-16T05:25:38.250Z,7533.00
2023-04-16T05:26:38.233Z,7483.00
2023-04-16T05:27:38.222Z,7432.00
2023-04-16T05:28:38.220Z,7412.00
2023-04-16T05:29:38.227Z,7326.00
2023-04-16T05:30:38.284Z,7350.00
2023-04-16T05:31:38.320Z,7372.00
2023-04-16T05:32:38.354Z,7440.00
2023-04-16T05:33:38.370Z,7492.00
2023-04-16T05:34:38.394Z,7495.00
2023-04-16T05:35:38.418Z,7482.00
2023-04-16T05:36:38.463Z,7486.00
2023-04-16T05:37:38.492Z,7500.00
2023-04-16T05:38:38.546Z,7472.00
2023-04-16T05:39:38.569Z,7463.00
2023-04-16T05:40:38.589Z,7458.00
2023-04-16T05:41:38.633Z,7459.00
2023-04-16T05:42:38.671Z,7446.00
2023-04-16T05:43:38.697Z,7486.00
2023-04-16T05:44:38.721Z,7535.00
2023-04-16T05:45:38.744Z,7489.00
2023-04-16T05:46:38.828Z,7420.00
2023-04-16T05:47:38.860Z,7381.00
2023-04-16T05:48:38.820Z,7407.00
2023-04-16T05:49:38.841Z,7399.00
2023-04-16T05:50:38.877Z,7310.00
2023-04-16T05:51:38.904Z,7261.00
2023-04-16T05:52:38.932Z,7297.00
2023-04-16T05:53:38.963Z,7370.00
2023-04-16T05:54:39.000Z,7404.00
2023-04-16T05:55:39.025Z,7459.00
2023-04-16T05:56:39.062Z,7400.00
2023-04-16T05:57:39.066Z,7360.00
2023-04-16T05:58:39.117Z,7285.00
2023-04-16T05:59:39.191Z,7161.00
2023-04-16T06:00:39.193Z,7138.00
2023-04-16T06:01:39.239Z,7146.00
2023-04-16T06:02:39.400Z,7027.00
2023-04-16T06:03:39.382Z,6987.00
2023-04-16T06:04:39.348Z,6815.00
2023-04-16T06:05:39.450Z,6768.00
2023-04-16T06:06:39.407Z,6737.00
2023-04-16T06:07:39.457Z,6688.00
2023-04-16T06:08:39.473Z,6712.00
2023-04-16T06:09:39.488Z,6775.00
2023-04-16T06:10:39.463Z,6834.00
2023-04-16T06:11:39.463Z,6946.00
2023-04-16T06:12:39.462Z,7059.00
2023-04-16T06:13:39.474Z,7155.00
2023-04-16T06:14:39.459Z,7258.00
2023-04-16T06:15:39.480Z,7319.00
2023-04-16T06:16:39.473Z,7322.00
2023-04-16T06:17:39.473Z,7303.00
2023-04-16T06:18:39.469Z,7301.00
2023-04-16T06:19:39.471Z,7240.00
2023-04-16T06:20:39.469Z,7138.00
2023-04-16T06:21:39.460Z,7061.00
2023-04-16T06:22:39.472Z,7037.00
2023-04-16T06:23:39.478Z,7041.00
2023-04-16T06:24:39.483Z,7040.00
2023-04-16T06:25:39.466Z,6963.00
2023-04-16T06:26:39.505Z,6940.00
2023-04-16T06:27:39.473Z,6943.00
2023-04-16T06:28:39.497Z,6976.00
2023-04-16T06:29:41.565Z,7001.00
2023-04-16T06:30:39.521Z,6919.00
2023-04-16T06:31:39.583Z,6925.00
2023-04-16T06:32:39.580Z,6964.00
2023-04-16T06:33:39.533Z,7007.00
2023-04-16T06:34:39.540Z,7079.00
2023-04-16T06:35:39.516Z,7077.00
2023-04-16T06:36:39.522Z,7094.00
2023-04-16T06:37:39.538Z,7119.00
2023-04-16T06:38:39.532Z,7064.00
2023-04-16T06:39:39.531Z,7086.00
2023-04-16T06:40:39.560Z,7150.00
2023-04-16T06:41:39.564Z,7234.00
2023-04-16T06:42:39.594Z,7266.00
2023-04-16T06:43:39.599Z,7270.00
2023-04-16T06:44:39.656Z,7293.00
2023-04-16T06:45:39.675Z,7327.00
2023-04-16T06:46:39.758Z,7338.00
2023-04-16T06:47:39.730Z,7367.00
2023-04-16T06:48:39.778Z,7402.00
2023-04-16T06:49:39.787Z,7400.00
2023-04-16T06:50:39.812Z,7409.00
2023-04-16T06:51:39.788Z,7438.00
2023-04-16T06:52:39.812Z,7573.00
2023-04-16T06:53:39.809Z,7615.00
2023-04-16T06:54:39.803Z,7631.00
2023-04-16T06:55:39.815Z,7612.00
2023-04-16T06:56:39.834Z,7675.00
2023-04-16T06:57:39.826Z,7717.00
2023-04-16T06:58:39.850Z,7682.00
2023-04-16T06:59:39.846Z,7634.00
2023-04-16T07:00:39.883Z,7596.00
2023-04-16T07:01:39.841Z,7577.00
2023-04-16T07:02:40.000Z,7510.00
2023-04-16T07:03:40.084Z,7444.00
2023-04-16T07:04:39.906Z,7252.00
2023-04-16T07:05:40.222Z,7120.00
2023-04-16T07:06:39.915Z,7119.00
2023-04-16T07:07:39.903Z,7111.00
2023-04-16T07:08:39.918Z,7055.00
2023-04-16T07:09:39.905Z,7035.00
2023-04-16T07:10:39.919Z,6944.00
2023-04-16T07:11:39.926Z,6774.00
2023-04-16T07:12:39.929Z,6510.00
2023-04-16T07:13:39.934Z,6424.00
2023-04-16T07:14:39.936Z,6365.00
2023-04-16T07:15:39.973Z,6350.00
2023-04-16T07:16:40.007Z,6438.00
2023-04-16T07:17:40.031Z,6594.00
2023-04-16T07:18:40.058Z,6694.00
2023-04-16T07:19:40.086Z,6701.00
2023-04-16T07:20:40.093Z,6689.00
2023-04-16T07:21:40.111Z,6714.00
2023-04-16T07:22:40.150Z,6722.00
2023-04-16T07:23:40.202Z,6736.00
2023-04-16T07:24:40.198Z,6795.00
2023-04-16T07:25:40.236Z,6862.00
2023-04-16T07:26:40.261Z,6988.00
2023-04-16T07:27:40.273Z,7135.00
2023-04-16T07:28:40.322Z,7130.00
2023-04-16T07:29:40.337Z,6998.00
2023-04-16T07:30:40.379Z,6939.00
2023-04-16T07:31:40.466Z,6872.00
2023-04-16T07:32:40.490Z,6776.00
2023-04-16T07:33:40.537Z,6818.00
2023-04-16T07:34:40.590Z,6921.00
2023-04-16T07:35:40.641Z,6974.00
2023-04-16T07:36:40.697Z,6886.00
2023-04-16T07:37:40.737Z,6930.00
2023-04-16T07:38:40.790Z,7001.00
2023-04-16T07:39:40.813Z,6950.00
2023-04-16T07:40:40.847Z,6932.00
2023-04-16T07:41:40.898Z,6839.00
2023-04-16T07:42:40.932Z,6769.00
2023-04-16T07:43:40.988Z,6746.00
2023-04-16T07:44:41.057Z,6632.00
2023-04-16T07:45:41.469Z,6571.00
2023-04-16T07:46:47.100Z,6562.00
2023-04-16T07:47:42.184Z,6550.00
2023-04-16T07:48:41.125Z,6519.00
2023-04-16T07:49:41.108Z,6372.00
2023-04-16T07:50:41.114Z,6261.00
2023-04-16T07:51:41.151Z,6151.00
2023-04-16T07:52:41.100Z,6167.00
2023-04-16T07:53:41.080Z,6245.00
2023-04-16T07:54:41.071Z,6353.00
2023-04-16T07:55:41.097Z,6312.00
2023-04-16T07:56:41.103Z,6344.00
2023-04-16T07:57:41.169Z,6208.00
2023-04-16T07:58:41.237Z,6204.00
2023-04-16T07:59:41.307Z,6306.00
2023-04-16T08:00:41.327Z,6148.00
2023-04-16T08:01:41.363Z,6067.00
2023-04-16T08:02:41.497Z,5972.00
2023-04-16T08:03:41.603Z,6014.00
2023-04-16T08:04:41.799Z,6090.00
2023-04-16T08:05:41.503Z,6096.00
2023-04-16T08:06:41.527Z,6036.00
2023-04-16T08:07:41.584Z,6004.00
2023-04-16T08:08:41.603Z,5981.00
2023-04-16T08:09:41.655Z,5855.00
2023-04-16T08:10:41.653Z,5854.00
2023-04-16T08:11:41.670Z,5870.00
2023-04-16T08:12:41.703Z,5824.00
2023-04-16T08:13:41.744Z,5616.00
2023-04-16T08:14:41.736Z,5542.00
2023-04-16T08:15:41.785Z,5568.00
2023-04-16T08:16:41.786Z,5510.00
2023-04-16T08:17:41.843Z,5417.00
2023-04-16T08:18:41.865Z,5254.00
2023-04-16T08:19:41.920Z,5094.00
2023-04-16T08:20:41.921Z,4999.00
2023-04-16T08:21:41.941Z,5017.00
2023-04-16T08:22:41.968Z,5000.00
2023-04-16T08:23:41.985Z,5070.00
2023-04-16T08:24:42.038Z,5052.00
2023-04-16T08:25:42.128Z,4922.00
2023-04-16T08:26:42.109Z,4961.00
2023-04-16T08:27:42.129Z,4892.00
2023-04-16T08:28:42.141Z,4843.00
2023-04-16T08:29:42.157Z,4716.00
2023-04-16T08:30:42.180Z,4705.00
2023-04-16T08:31:42.260Z,4721.00
2023-04-16T08:32:42.291Z,4693.00
2023-04-16T08:33:42.258Z,4782.00
2023-04-16T08:34:42.307Z,4675.00
2023-04-16T08:35:42.323Z,4721.00
2023-04-16T08:36:42.315Z,4697.00
2023-04-16T08:37:42.312Z,4730.00
2023-04-16T08:38:42.325Z,4801.00
2023-04-16T08:39:42.356Z,4807.00
2023-04-16T08:40:42.354Z,4878.00
2023-04-16T08:41:42.381Z,5029.00
2023-04-16T08:42:42.368Z,5050.00
2023-04-16T08:43:42.353Z,5041.00
2023-04-16T08:44:42.440Z,5017.00
2023-04-16T08:45:42.452Z,4979.00
2023-04-16T08:46:43.300Z,4886.00
2023-04-16T08:47:42.554Z,4886.00
2023-04-16T08:48:42.605Z,4849.00
2023-04-16T08:49:42.612Z,4684.00
2023-04-16T08:50:42.673Z,4684.00
2023-04-16T08:51:42.677Z,4692.00
2023-04-16T08:52:42.745Z,4630.00
2023-04-16T08:53:42.800Z,4584.00
2023-04-16T08:54:42.865Z,4543.00
2023-04-16T08:55:42.932Z,4664.00
2023-04-16T08:56:43.282Z,4641.00
2023-04-16T08:57:43.021Z,4531.00
2023-04-16T08:58:43.074Z,4537.00
2023-04-16T08:59:43.133Z,4576.00
2023-04-16T09:00:43.204Z,4560.00
2023-04-16T09:01:43.298Z,4627.00
2023-04-16T09:02:43.458Z,4719.00
2023-04-16T09:03:43.566Z,4787.00
2023-04-16T09:04:43.520Z,4763.00
2023-04-16T09:05:43.534Z,4639.00
2023-04-16T09:06:43.612Z,4475.00
2023-04-16T09:07:43.640Z,4549.00
2023-04-16T09:08:43.701Z,4653.00
2023-04-16T09:09:43.752Z,4682.00
2023-04-16T09:10:43.833Z,4609.00
2023-04-16T09:11:43.879Z,4379.00
2023-04-16T09:12:43.959Z,4233.00
2023-04-16T09:13:44.003Z,4164.00
2023-04-16T09:14:44.125Z,4233.00
2023-04-16T09:15:44.129Z,4269.00
2023-04-16T09:16:44.314Z,4356.00
2023-04-16T09:17:44.330Z,4456.00
2023-04-16T09:18:44.338Z,4528.00
2023-04-16T09:19:44.402Z,4690.00
2023-04-16T09:20:44.463Z,4950.00
2023-04-16T09:21:44.509Z,5086.00
2023-04-16T09:22:44.567Z,5033.00
2023-04-16T09:23:44.657Z,4871.00
2023-04-16T09:24:44.732Z,4736.00
2023-04-16T09:25:44.760Z,4744.00
2023-04-16T09:26:44.837Z,4740.00
2023-04-16T09:27:44.872Z,4797.00
2023-04-16T09:28:44.927Z,4812.00
2023-04-16T09:29:44.997Z,4860.00
2023-04-16T09:30:45.060Z,4932.00
2023-04-16T09:31:45.146Z,4816.00
2023-04-16T09:32:45.177Z,4788.00
2023-04-16T09:33:45.246Z,4829.00
2023-04-16T09:34:45.275Z,4816.00
2023-04-16T09:35:45.381Z,4724.00
2023-04-16T09:36:45.387Z,4494.00
2023-04-16T09:37:45.401Z,4299.00
2023-04-16T09:38:45.426Z,4361.00
2023-04-16T09:39:45.439Z,4474.00
2023-04-16T09:40:45.436Z,4489.00
2023-04-16T09:41:45.426Z,4448.00
2023-04-16T09:42:45.460Z,4542.00
2023-04-16T09:43:45.477Z,4595.00
2023-04-16T09:44:45.511Z,4650.00
2023-04-16T09:45:45.561Z,4667.00
2023-04-16T09:46:45.598Z,4682.00
2023-04-16T09:47:45.704Z,4698.00
2023-04-16T09:48:45.747Z,4723.00
2023-04-16T09:49:45.785Z,4775.00
2023-04-16T09:50:45.836Z,4897.00
2023-04-16T09:51:45.872Z,4932.00
2023-04-16T09:52:45.934Z,4846.00
2023-04-16T09:53:45.971Z,4744.00
2023-04-16T09:54:45.992Z,4584.00
2023-04-16T09:55:46.886Z,4389.00
2023-04-16T09:56:46.075Z,4368.00
2023-04-16T09:57:46.086Z,4463.00
2023-04-16T09:58:46.106Z,4562.00
2023-04-16T09:59:46.098Z,4594.00
2023-04-16T10:00:46.130Z,4505.00
2023-04-16T10:01:46.190Z,4492.00
2023-04-16T10:02:47.972Z,4207.00
2023-04-16T10:03:46.265Z,4163.00
2023-04-16T10:04:46.212Z,4148.00
2023-04-16T10:05:46.155Z,4224.00
2023-04-16T10:06:46.123Z,4206.00
2023-04-16T10:07:46.145Z,4077.00
2023-04-16T10:08:47.320Z,3985.00
2023-04-16T10:09:46.101Z,3929.00
2023-04-16T10:10:46.094Z,3756.00
2023-04-16T10:11:46.108Z,3604.00
2023-04-16T10:12:46.097Z,3618.00
2023-04-16T10:13:46.086Z,3709.00
2023-04-16T10:14:46.912Z,3680.00
2023-04-16T10:15:46.066Z,3835.00
2023-04-16T10:16:46.144Z,4001.00
2023-04-16T10:17:46.093Z,4028.00
2023-04-16T10:18:46.080Z,4009.00
2023-04-16T10:19:46.102Z,4104.00
2023-04-16T10:20:46.090Z,4034.00
2023-04-16T10:21:46.082Z,3972.00
2023-04-16T10:22:46.111Z,3961.00
2023-04-16T10:23:46.097Z,3902.00
2023-04-16T10:24:46.158Z,3799.00
2023-04-16T10:25:46.138Z,3863.00
2023-04-16T10:26:46.141Z,3864.00
2023-04-16T10:27:46.136Z,3770.00
2023-04-16T10:28:46.132Z,3806.00
2023-04-16T10:29:46.182Z,3693.00
2023-04-16T10:30:46.172Z,3558.00
2023-04-16T10:31:46.219Z,3566.00
2023-04-16T10:32:46.286Z,3576.00
2023-04-16T10:33:46.231Z,3490.00
2023-04-16T10:34:46.271Z,3377.00
2023-04-16T10:35:52.410Z,3363.00
2023-04-16T10:36:47.325Z,3367.00
2023-04-16T10:37:46.314Z,3411.00
2023-04-16T10:38:46.283Z,3483.00
2023-04-16T10:39:46.266Z,3617.00
2023-04-16T10:40:46.249Z,3867.00
2023-04-16T10:41:46.248Z,3875.00
2023-04-16T10:42:46.254Z,3924.00
2023-04-16T10:43:46.297Z,3957.00
2023-04-16T10:44:46.311Z,4122.00
2023-04-16T10:45:46.404Z,4251.00
2023-04-16T10:46:46.407Z,4329.00
2023-04-16T10:47:46.500Z,4362.00
2023-04-16T10:48:50.082Z,4266.00
2023-04-16T10:49:46.504Z,4209.00
2023-04-16T10:50:46.490Z,4252.00
2023-04-16T10:51:46.488Z,4282.00
2023-04-16T10:52:46.469Z,4312.00
2023-04-16T10:53:46.479Z,4284.00
2023-04-16T10:54:46.474Z,4274.00
2023-04-16T10:55:46.471Z,4270.00
2023-04-16T10:56:46.463Z,4171.00
2023-04-16T10:57:46.462Z,4191.00
2023-04-16T10:58:46.427Z,4254.00
2023-04-16T10:59:46.443Z,4210.00
2023-04-16T11:00:46.417Z,4091.00
2023-04-16T11:01:46.431Z,3874.00
2023-04-16T11:02:46.588Z,3787.00
2023-04-16T11:03:46.532Z,3811.00
2023-04-16T11:04:46.552Z,3932.00
2023-04-16T11:05:46.412Z,3858.00
2023-04-16T11:06:46.372Z,3725.00
2023-04-16T11:07:46.386Z,3706.00
2023-04-16T11:09:46.373Z,3685.00
2023-04-16T11:10:46.359Z,3713.00
2023-04-16T11:11:46.365Z,3858.00
2023-04-16T11:12:46.358Z,4095.00
2023-04-16T11:13:46.373Z,3994.00
2023-04-16T11:14:46.328Z,3748.00
2023-04-16T11:15:46.350Z,3516.00
2023-04-16T11:16:46.333Z,3479.00
2023-04-16T11:17:46.372Z,3530.00
2023-04-16T11:18:51.605Z,3652.00
2023-04-16T11:19:47.321Z,3652.00
2023-04-16T11:20:46.297Z,3502.00
2023-04-16T11:21:46.279Z,3454.00
2023-04-16T11:22:46.298Z,3400.00
2023-04-16T11:23:46.276Z,3285.00
2023-04-16T11:24:46.290Z,3220.00
2023-04-16T11:25:46.271Z,3233.00
2023-04-16T11:26:46.270Z,3332.00
2023-04-16T11:27:46.268Z,3447.00
2023-04-16T11:28:46.251Z,3374.00
2023-04-16T11:29:47.606Z,3295.00
2023-04-16T11:30:46.314Z,3129.00
2023-04-16T11:31:46.369Z,3162.00
2023-04-16T11:32:46.401Z,3092.00
2023-04-16T11:33:46.430Z,3128.00
2023-04-16T11:34:46.457Z,3008.00
2023-04-16T11:35:46.559Z,3024.00
2023-04-16T11:36:46.566Z,3076.00
2023-04-16T11:37:46.635Z,3167.00
2023-04-16T11:38:46.692Z,3252.00
2023-04-16T11:39:46.718Z,3259.00
2023-04-16T11:40:46.740Z,3208.00
2023-04-16T11:41:46.788Z,3169.00
2023-04-16T11:42:46.856Z,3171.00
2023-04-16T11:43:46.886Z,3270.00
2023-04-16T11:44:46.927Z,3455.00
2023-04-16T11:45:46.968Z,3440.00
2023-04-16T11:46:47.062Z,3386.00
2023-04-16T11:47:47.089Z,3333.00
2023-04-16T11:48:47.085Z,3387.00
2023-04-16T11:49:47.099Z,3450.00
2023-04-16T11:50:47.131Z,3193.00
2023-04-16T11:51:47.165Z,3120.00
2023-04-16T11:52:47.201Z,3173.00
2023-04-16T11:53:47.243Z,3203.00
2023-04-16T11:54:47.272Z,3281.00
2023-04-16T11:55:47.300Z,3156.00
2023-04-16T11:56:47.422Z,3037.00
2023-04-16T11:57:47.419Z,2989.00
2023-04-16T11:58:47.449Z,3034.00
2023-04-16T12:00:02.068Z,3174.00
2023-04-16T12:00:48.484Z,3174.00
2023-04-16T12:01:47.500Z,3187.00
2023-04-16T12:02:47.610Z,3246.00
2023-04-16T12:03:47.677Z,3321.00
2023-04-16T12:04:47.593Z,3524.00
2023-04-16T12:05:47.462Z,3568.00
2023-04-16T12:06:47.477Z,3626.00
2023-04-16T12:07:47.442Z,3566.00